Time;durP1;ratioP1;P1;durP2;ratioP2;P2;SDS_P1;SDS_P2;PMS_P1;PMS_P2;Temp;Humidity;BMP_temperature;BMP_pressure;BME280_temperature;BME280_humidity;BME280_pressure;Samples;Min_cycle;Max_cycle;Signal;HPM_P1;HPM_P2
2021/10/14 00:02:43;;;;;;;8.05;4.18;;;;;;;9.73;63.79;100949.16;10383247;28;20151;-63
2021/10/14 00:07:45;;;;;;;11.63;4.45;;;;;;;9.76;63.82;100933.34;10384596;28;20061;-63
2021/10/14 00:12:46;;;;;;;8.90;4.50;;;;;;;9.81;63.70;100928.81;10389629;28;20037;-64
2021/10/14 00:17:49;;;;;;;12.98;4.47;;;;;;;9.83;63.92;100924.38;10389413;28;20076;-63
2021/10/14 00:22:51;;;;;;;8.95;4.57;;;;;;;9.84;63.64;100928.66;10390180;28;20049;-63
2021/10/14 00:27:53;;;;;;;7.43;4.47;;;;;;;9.77;63.75;100919.38;10389900;28;20053;-63
2021/10/14 00:32:54;;;;;;;11.63;4.72;;;;;;;9.80;63.68;100919.25;10389383;28;20434;-63
2021/10/14 00:37:56;;;;;;;8.75;4.32;;;;;;;9.78;63.78;100908.00;10389521;28;20889;-63
2021/10/14 00:42:58;;;;;;;7.00;4.57;;;;;;;9.76;63.80;100896.78;10389966;28;20066;-63
2021/10/14 00:48:00;;;;;;;8.80;3.90;;;;;;;9.78;63.74;100887.97;10388680;28;20323;-63
2021/10/14 00:53:02;;;;;;;7.50;4.30;;;;;;;9.72;63.98;100880.38;10389038;28;20046;-63
2021/10/14 00:58:04;;;;;;;8.57;4.35;;;;;;;9.69;63.88;100880.50;10388921;28;20486;-63
2021/10/14 01:03:05;;;;;;;10.40;5.15;;;;;;;9.70;64.02;100882.22;10388718;28;20778;-63
2021/10/14 01:08:07;;;;;;;10.70;4.78;;;;;;;9.73;63.97;100879.47;10387784;28;20703;-63
2021/10/14 01:13:09;;;;;;;11.75;5.00;;;;;;;9.70;64.13;100876.13;10386768;28;20045;-63
2021/10/14 01:18:12;;;;;;;8.55;4.63;;;;;;;9.71;64.16;100868.22;10387028;28;20385;-63
2021/10/14 01:23:14;;;;;;;12.43;5.38;;;;;;;9.73;64.03;100876.03;10387919;28;20049;-63
2021/10/14 01:28:16;;;;;;;9.15;5.25;;;;;;;9.65;64.25;100868.44;10387136;28;20060;-63
2021/10/14 01:33:19;;;;;;;8.63;5.70;;;;;;;9.56;64.47;100867.06;10387290;28;20300;-63
2021/10/14 01:38:20;;;;;;;12.27;5.35;;;;;;;9.53;64.61;100854.13;10386753;28;20071;-63
2021/10/14 01:43:22;;;;;;;11.50;5.45;;;;;;;9.49;64.81;100863.00;10385901;28;20053;-63
2021/10/14 01:48:24;;;;;;;9.85;5.55;;;;;;;9.55;64.53;100859.28;10387582;28;20058;-63
2021/10/14 01:53:26;;;;;;;9.20;5.72;;;;;;;9.54;64.84;100858.44;10386548;28;20416;-63
2021/10/14 01:58:28;;;;;;;10.32;5.53;;;;;;;9.53;64.73;100867.19;10386280;28;20300;-63
2021/10/14 02:03:29;;;;;;;9.05;5.85;;;;;;;9.55;64.56;100861.91;10391491;28;20052;-63
2021/10/14 02:08:31;;;;;;;7.80;4.78;;;;;;;9.59;64.60;100864.31;10393664;28;20061;-63
2021/10/14 02:13:32;;;;;;;10.18;5.60;;;;;;;9.57;64.68;100860.94;10393610;28;20523;-63
2021/10/14 02:18:34;;;;;;;13.35;5.72;;;;;;;9.56;64.56;100859.22;10393709;28;20057;-63
2021/10/14 02:23:36;;;;;;;13.52;5.57;;;;;;;9.62;64.65;100859.00;10393889;28;20057;-63
2021/10/14 02:28:37;;;;;;;13.68;6.15;;;;;;;9.64;64.55;100857.16;10392452;28;20053;-63
2021/10/14 02:33:39;;;;;;;12.50;5.63;;;;;;;9.70;64.67;100850.88;10391535;28;20132;-63
2021/10/14 02:38:41;;;;;;;13.18;5.90;;;;;;;9.71;64.46;100851.72;10391228;28;20052;-63
2021/10/14 02:43:43;;;;;;;10.05;5.72;;;;;;;9.76;64.31;100848.00;10392745;28;20787;-63
2021/10/14 02:48:44;;;;;;;15.73;5.82;;;;;;;9.77;64.33;100843.63;10391808;28;20523;-63
2021/10/14 02:53:46;;;;;;;10.23;5.45;;;;;;;9.83;64.17;100848.59;10390726;28;20773;-63
2021/10/14 02:58:48;;;;;;;14.23;5.82;;;;;;;9.83;64.19;100846.81;10391168;28;20673;-63
2021/10/14 03:03:49;;;;;;;10.57;5.55;;;;;;;9.79;64.35;100841.81;10388352;28;20135;-63
2021/10/14 03:08:51;;;;;;;11.15;6.53;;;;;;;9.79;64.19;100832.19;10386941;28;20519;-63
2021/10/14 03:13:53;;;;;;;11.50;5.93;;;;;;;9.85;63.98;100831.91;10383880;28;20053;-63
2021/10/14 03:18:55;;;;;;;13.65;6.65;;;;;;;9.89;63.85;100835.28;10383888;28;20473;-63
2021/10/14 03:23:56;;;;;;;10.40;6.30;;;;;;;9.81;64.12;100832.13;10385484;28;20067;-63
2021/10/14 03:28:58;;;;;;;12.45;6.70;;;;;;;9.78;64.10;100833.09;10384591;28;20049;-63
2021/10/14 03:34:00;;;;;;;9.93;6.20;;;;;;;9.81;64.14;100830.34;10384898;28;20053;-63
2021/10/14 03:39:02;;;;;;;10.82;6.47;;;;;;;9.79;64.09;100831.34;10383625;28;20049;-63
2021/10/14 03:44:04;;;;;;;8.80;6.43;;;;;;;9.89;63.92;100827.44;10390741;28;20513;-63
2021/10/14 03:49:06;;;;;;;13.05;6.13;;;;;;;9.92;63.93;100820.31;10390997;28;20049;-63
2021/10/14 03:54:09;;;;;;;12.85;7.30;;;;;;;9.89;63.89;100825.66;10392484;28;20056;-63
2021/10/14 03:59:10;;;;;;;12.40;7.93;;;;;;;9.94;63.82;100828.94;10391156;28;20045;-63
2021/10/14 04:04:12;;;;;;;13.13;7.50;;;;;;;9.91;63.86;100830.84;10392014;28;20520;-63
2021/10/14 04:09:14;;;;;;;14.52;7.43;;;;;;;9.92;63.76;100829.91;10392059;28;20045;-63
2021/10/14 04:14:15;;;;;;;12.38;7.05;;;;;;;9.96;63.66;100826.25;10391103;28;20058;-63
2021/10/14 04:19:17;;;;;;;10.77;7.10;;;;;;;9.99;63.69;100840.00;10390303;28;20152;-63
2021/10/14 04:24:19;;;;;;;14.30;7.05;;;;;;;10.03;63.59;100838.16;10391046;28;20075;-62
2021/10/14 04:29:21;;;;;;;11.48;7.22;;;;;;;9.98;63.68;100834.88;10389278;28;20053;-63
2021/10/14 04:34:23;;;;;;;12.65;6.72;;;;;;;9.90;63.82;100836.97;10390504;28;20041;-63
2021/10/14 04:39:25;;;;;;;11.93;7.25;;;;;;;9.91;63.75;100833.44;10389685;28;20065;-63
2021/10/14 04:44:27;;;;;;;13.75;7.00;;;;;;;9.90;63.86;100831.72;10390120;28;20146;-63
2021/10/14 04:49:28;;;;;;;11.10;7.40;;;;;;;9.90;63.91;100837.81;10389232;28;20157;-63
2021/10/14 04:54:30;;;;;;;12.13;7.30;;;;;;;9.89;63.95;100830.88;10389001;28;20091;-63
2021/10/14 04:59:32;;;;;;;11.77;7.38;;;;;;;9.84;63.96;100818.94;10389685;28;20128;-63
2021/10/14 05:04:33;;;;;;;12.10;7.50;;;;;;;9.90;64.02;100811.69;10389261;28;20054;-63
2021/10/14 05:09:35;;;;;;;12.77;7.32;;;;;;;9.94;63.86;100813.25;10388093;28;20506;-63
2021/10/14 05:14:37;;;;;;;14.18;7.78;;;;;;;9.99;63.74;100800.81;10388501;28;20114;-63
2021/10/14 05:19:38;;;;;;;13.15;7.80;;;;;;;9.98;63.74;100804.34;10388889;28;20136;-64
2021/10/14 05:24:40;;;;;;;11.10;7.18;;;;;;;9.94;63.84;100805.41;10389685;28;20071;-63
2021/10/14 05:29:42;;;;;;;12.30;7.82;;;;;;;9.84;63.99;100808.47;10389182;28;20136;-63
2021/10/14 05:34:44;;;;;;;13.65;8.13;;;;;;;9.75;64.22;100814.94;10388184;28;20041;-63
2021/10/14 05:39:46;;;;;;;14.23;8.32;;;;;;;9.77;64.36;100820.13;10388144;28;20041;-64
2021/10/14 05:44:47;;;;;;;13.82;9.00;;;;;;;9.83;64.39;100818.06;10387923;28;20486;-64
2021/10/14 05:49:49;;;;;;;15.95;8.48;;;;;;;9.88;64.09;100836.16;10386086;28;20404;-64
2021/10/14 05:54:51;;;;;;;14.43;8.82;;;;;;;9.88;64.12;100839.63;10388226;28;20498;-64
2021/10/14 05:59:53;;;;;;;13.32;8.95;;;;;;;9.91;64.01;100836.06;10385823;28;20052;-64
2021/10/14 06:04:54;;;;;;;15.30;8.98;;;;;;;10.06;63.73;100838.00;10386221;28;20055;-64
2021/10/14 06:09:56;;;;;;;14.13;8.50;;;;;;;10.09;63.64;100838.72;10386364;28;20057;-64
2021/10/14 06:14:58;;;;;;;14.38;8.02;;;;;;;10.11;63.67;100839.50;10386639;28;20505;-64
2021/10/14 06:20:00;;;;;;;13.98;8.43;;;;;;;10.26;63.41;100846.66;10384796;28;20411;-64
2021/10/14 06:25:02;;;;;;;12.75;8.35;;;;;;;10.34;63.14;100836.72;10386763;28;20512;-64
2021/10/14 06:30:04;;;;;;;14.10;8.25;;;;;;;10.37;63.13;100831.38;10383895;28;20395;-64
2021/10/14 06:35:06;;;;;;;12.38;8.13;;;;;;;10.41;62.93;100842.53;10385332;28;20053;-65
2021/10/14 06:40:09;;;;;;;14.10;8.75;;;;;;;10.46;62.85;100848.41;10386264;28;20136;-64
2021/10/14 06:45:10;;;;;;;13.93;8.50;;;;;;;10.41;63.01;100845.16;10385567;28;20056;-64
2021/10/14 06:50:12;;;;;;;13.88;8.70;;;;;;;10.46;62.92;100838.78;10383653;28;21063;-64
2021/10/14 06:55:14;;;;;;;13.35;8.60;;;;;;;10.48;62.52;100834.34;10383879;28;20049;-64
2021/10/14 07:00:19;;;;;;;13.82;9.00;;;;;;;10.54;62.65;100833.22;10385196;28;20041;-64
2021/10/14 07:05:21;;;;;;;15.63;8.23;;;;;;;10.70;62.39;100831.63;10383929;28;20047;-64
2021/10/14 07:10:23;;;;;;;14.07;8.30;;;;;;;10.80;61.96;100827.66;10383520;28;20099;-64
2021/10/14 07:15:25;;;;;;;16.00;8.95;;;;;;;10.72;62.06;100824.53;10384881;28;20046;-64
2021/10/14 07:20:27;;;;;;;11.27;8.30;;;;;;;10.67;62.36;100826.50;10384354;28;20049;-64
2021/10/14 07:25:29;;;;;;;15.75;8.48;;;;;;;10.81;62.00;100836.31;10383196;28;20108;-64
2021/10/14 07:30:31;;;;;;;13.20;7.72;;;;;;;10.88;61.82;100833.38;10385035;28;20396;-64
2021/10/14 07:35:34;;;;;;;12.40;8.10;;;;;;;10.84;61.77;100831.81;10384155;28;20059;-64
2021/10/14 07:40:40;;;;;;;12.65;7.75;;;;;;;10.81;61.82;100837.19;10384875;28;20293;-64
2021/10/14 07:45:44;;;;;;;13.35;8.77;;;;;;;10.85;61.76;100843.97;10380545;28;20050;-65
2021/10/14 07:50:47;;;;;;;10.57;7.30;;;;;;;10.95;61.60;100836.56;10383755;28;20057;-64
2021/10/14 07:55:49;;;;;;;12.68;7.50;;;;;;;10.98;61.20;100845.09;10384553;28;20282;-64
2021/10/14 08:00:50;;;;;;;15.23;8.40;;;;;;;11.00;61.22;100858.97;10384181;28;20236;-64
2021/10/14 08:05:53;;;;;;;12.75;7.03;;;;;;;11.06;61.18;100852.63;10383004;28;20525;-64
2021/10/14 08:10:55;;;;;;;12.43;6.90;;;;;;;11.25;60.76;100849.03;10384076;28;20089;-64
2021/10/14 08:15:56;;;;;;;13.25;6.90;;;;;;;11.43;60.28;100849.94;10383141;28;20510;-64
2021/10/14 08:20:59;;;;;;;11.70;6.32;;;;;;;11.53;60.21;100848.56;10383727;28;20514;-64
2021/10/14 08:26:01;;;;;;;12.82;6.05;;;;;;;11.54;59.91;100844.19;10378778;28;20460;-64
2021/10/14 08:31:03;;;;;;;12.93;6.57;;;;;;;11.73;59.43;100837.09;10381464;28;20049;-64
2021/10/14 08:36:05;;;;;;;11.93;6.32;;;;;;;11.67;59.20;100846.13;10383120;28;20795;-64
2021/10/14 08:41:08;;;;;;;11.75;6.40;;;;;;;11.77;58.96;100834.25;10387598;28;20055;-69
2021/10/14 08:46:10;;;;;;;9.85;5.95;;;;;;;11.90;58.80;100830.09;10387380;28;20377;-65
2021/10/14 08:51:11;;;;;;;13.30;5.63;;;;;;;12.12;58.30;100825.44;10388288;28;20465;-65
2021/10/14 08:56:13;;;;;;;11.68;5.22;;;;;;;12.30;58.00;100826.28;10387157;28;20383;-65
2021/10/14 09:01:15;;;;;;;10.90;5.90;;;;;;;12.35;57.43;100831.28;10388268;28;20476;-65
2021/10/14 09:06:18;;;;;;;10.13;5.43;;;;;;;12.14;57.82;100833.22;10388562;28;20053;-65
2021/10/14 09:11:24;;;;;;;11.65;5.47;;;;;;;12.47;57.06;100828.00;10384581;28;20509;-65
2021/10/14 09:16:33;;;;;;;12.88;5.70;;;;;;;12.55;56.78;100837.19;10386559;28;20058;-65
2021/10/14 09:21:35;;;;;;;11.32;5.13;;;;;;;12.33;57.27;100843.63;10387101;28;20068;-65
2021/10/14 09:26:36;;;;;;;13.70;5.57;;;;;;;12.41;56.99;100831.81;10387607;28;20054;-65
2021/10/14 09:31:51;;;;;;;11.60;5.95;;;;;;;12.55;56.35;100825.81;10380015;28;20136;-65
2021/10/14 09:36:54;;;;;;;9.90;5.00;;;;;;;12.59;56.90;100822.97;10385811;28;20212;-65
2021/10/14 09:41:58;;;;;;;14.48;5.43;;;;;;;12.63;56.89;100816.63;10387675;28;20053;-65
2021/10/14 09:47:14;;;;;;;9.57;4.43;;;;;;;12.74;55.91;100813.41;10387083;28;20053;-64
2021/10/14 09:52:16;;;;;;;10.50;4.40;;;;;;;13.00;56.37;100819.84;10386470;28;20041;-76
2021/10/14 09:57:18;;;;;;;9.63;4.43;;;;;;;13.13;55.86;100818.25;10384437;28;20433;-77
2021/10/14 10:02:22;;;;;;;10.48;5.03;;;;;;;13.25;55.49;100814.91;10385531;28;20486;-78
2021/10/14 10:07:24;;;;;;;10.90;4.43;;;;;;;13.28;55.83;100809.47;10386389;28;20053;-77
2021/10/14 10:12:26;;;;;;;11.18;4.70;;;;;;;13.30;55.69;100810.22;10384579;28;20080;-78
2021/10/14 10:17:39;;;;;;;9.85;4.20;;;;;;;13.19;54.75;100810.00;10387006;28;20055;-79
2021/10/14 10:22:41;;;;;;;8.90;3.95;;;;;;;13.07;55.58;100810.69;10382811;28;20045;-77
2021/10/14 10:27:43;;;;;;;9.40;3.70;;;;;;;13.16;55.80;100811.03;10384743;28;20417;-78
2021/10/14 10:32:46;;;;;;;8.23;3.92;;;;;;;13.27;55.46;100810.41;10384431;28;20049;-78
2021/10/14 10:37:49;;;;;;;10.45;4.18;;;;;;;13.10;55.71;100808.75;10386166;28;20144;-79
2021/10/14 10:43:03;;;;;;;8.30;3.70;;;;;;;13.00;55.91;100806.72;10383853;28;20061;-79
2021/10/14 10:48:06;;;;;;;9.57;3.90;;;;;;;13.14;56.09;100793.66;10385995;28;20159;-79
2021/10/14 10:53:38;;;;;;;8.45;3.72;;;;;;;13.30;55.76;100791.84;10385258;28;20155;-79
2021/10/14 10:58:49;;;;;;;9.52;3.72;;;;;;;13.36;55.57;100783.59;10376938;28;20143;-78
2021/10/14 11:04:02;;;;;;;9.38;4.40;;;;;;;13.59;55.02;100783.16;10385661;28;20092;-79
2021/10/14 11:09:14;;;;;;;8.25;4.20;;;;;;;13.63;55.05;100775.00;10383299;28;20057;-78
2021/10/14 11:14:15;;;;;;;7.25;3.85;;;;;;;13.66;54.96;100772.19;10384902;28;20095;-79
2021/10/14 11:19:17;;;;;;;11.65;4.20;;;;;;;13.75;54.83;100766.41;10385000;28;20052;-79
2021/10/14 11:24:22;;;;;;;10.35;3.58;;;;;;;13.97;54.68;100763.31;10384803;28;20045;-80
2021/10/14 11:29:28;;;;;;;7.75;3.75;;;;;;;14.20;54.46;100761.91;10384602;28;20153;-79
2021/10/14 11:34:30;;;;;;;8.68;3.88;;;;;;;14.27;54.11;100750.91;10384756;28;20045;-79
2021/10/14 11:39:37;;;;;;;6.75;3.60;;;;;;;14.40;53.88;100741.31;10384431;28;20160;-78
2021/10/14 11:44:41;;;;;;;8.95;3.85;;;;;;;14.62;53.63;100740.84;10384069;28;20041;-78
2021/10/14 11:49:44;;;;;;;10.32;3.40;;;;;;;14.75;53.27;100727.72;10383815;28;20520;-78
2021/10/14 11:54:46;;;;;;;8.60;3.50;;;;;;;14.83;53.08;100728.09;10385089;28;20430;-78
2021/10/14 11:59:47;;;;;;;8.60;3.40;;;;;;;14.87;52.54;100725.16;10383758;28;20490;-78
2021/10/14 12:04:55;;;;;;;7.07;3.17;;;;;;;14.95;52.38;100725.50;10386809;28;20063;-78
2021/10/14 12:09:57;;;;;;;10.48;3.70;;;;;;;14.91;52.33;100728.44;10392105;28;20049;-77
2021/10/14 12:15:07;;;;;;;9.48;3.65;;;;;;;15.00;51.94;100719.94;10391488;28;20111;-77
2021/10/14 12:20:13;;;;;;;6.53;3.40;;;;;;;15.14;52.38;100707.53;10391747;28;20498;-79
2021/10/14 12:25:33;;;;;;;9.38;3.10;;;;;;;15.30;52.01;100702.94;10406661;28;20442;-77
2021/10/14 12:30:38;;;;;;;7.53;3.20;;;;;;;15.52;52.00;100697.09;10390085;28;20429;-74
2021/10/14 12:36:01;;;;;;;7.18;3.08;;;;;;;15.64;51.68;100682.22;10390486;28;20055;-77
2021/10/14 12:41:04;;;;;;;8.27;3.00;;;;;;;15.76;51.39;100682.22;10383654;28;20041;-76
2021/10/14 12:46:22;;;;;;;9.20;3.00;;;;;;;15.72;51.24;100678.09;10384157;28;20520;-75
2021/10/14 12:51:25;;;;;;;5.63;2.90;;;;;;;15.78;51.52;100671.56;10389182;28;20065;-74
2021/10/14 12:56:35;;;;;;;8.00;2.90;;;;;;;15.99;51.40;100667.44;10389697;28;20339;-74
2021/10/14 13:01:39;;;;;;;6.22;2.63;;;;;;;16.12;51.31;100666.44;10387573;28;20520;-74
2021/10/14 13:06:41;;;;;;;5.22;2.40;;;;;;;16.26;51.11;100668.13;10389107;28;20053;-75
2021/10/14 13:11:43;;;;;;;8.32;3.00;;;;;;;16.02;50.76;100654.84;10387471;28;20052;-75
2021/10/14 13:16:45;;;;;;;5.32;2.65;;;;;;;15.73;51.55;100653.44;10387132;28;20199;-74
2021/10/14 13:21:47;;;;;;;6.57;2.90;;;;;;;15.40;52.10;100656.56;10388602;28;20417;-75
2021/10/14 13:26:50;;;;;;;6.07;2.70;;;;;;;15.25;52.60;100648.84;10387800;28;20103;-74
2021/10/14 13:31:52;;;;;;;7.43;3.00;;;;;;;15.11;53.06;100648.94;10387634;28;20136;-75
2021/10/14 13:36:54;;;;;;;5.82;2.50;;;;;;;15.15;53.14;100642.50;10386471;28;20054;-75
2021/10/14 13:42:00;;;;;;;8.20;2.75;;;;;;;15.18;53.20;100643.16;10387048;28;20057;-74
2021/10/14 13:47:02;;;;;;;8.48;2.65;;;;;;;15.02;53.63;100639.84;10386463;28;20049;-76
2021/10/14 13:52:04;;;;;;;5.57;2.63;;;;;;;14.94;53.68;100642.16;10388203;28;20057;-74
2021/10/14 13:57:06;;;;;;;5.85;2.70;;;;;;;14.73;54.44;100632.19;10387138;28;20045;-75
2021/10/14 14:02:08;;;;;;;6.80;2.58;;;;;;;14.65;54.54;100623.97;10387402;28;20052;-75
2021/10/14 14:07:10;;;;;;;5.70;2.42;;;;;;;14.52;55.09;100623.91;10384558;28;20054;-74
2021/10/14 14:12:11;;;;;;;4.20;2.15;;;;;;;14.44;55.41;100619.13;10386319;28;20421;-76
2021/10/14 14:17:13;;;;;;;6.47;2.58;;;;;;;14.38;55.95;100621.28;10386963;28;20088;-74
2021/10/14 14:22:16;;;;;;;6.18;2.70;;;;;;;14.25;56.23;100608.09;10386144;28;20045;-75
2021/10/14 14:27:18;;;;;;;6.07;2.42;;;;;;;14.18;56.30;100596.28;10383576;28;20058;-76
2021/10/14 14:32:21;;;;;;;6.85;2.50;;;;;;;14.46;55.56;100592.69;10396104;28;20060;-76
2021/10/14 14:37:24;;;;;;;7.40;2.60;;;;;;;14.61;55.65;100586.47;10381881;28;20483;-76
2021/10/14 14:42:26;;;;;;;5.30;2.42;;;;;;;14.71;55.48;100582.28;10383720;28;20046;-77
2021/10/14 14:47:28;;;;;;;6.13;2.67;;;;;;;14.73;55.73;100582.16;10383635;28;20057;-76
2021/10/14 14:52:30;;;;;;;5.20;2.10;;;;;;;14.70;55.48;100585.00;10384128;28;20055;-76
2021/10/14 14:57:32;;;;;;;9.95;2.70;;;;;;;14.56;55.71;100578.03;10385433;28;20049;-76
2021/10/14 15:02:33;;;;;;;6.45;2.50;;;;;;;14.46;55.77;100579.53;10385112;28;20103;-75
2021/10/14 15:07:35;;;;;;;5.88;2.50;;;;;;;14.40;56.04;100572.91;10384534;28;20056;-76
2021/10/14 15:12:37;;;;;;;6.13;2.58;;;;;;;14.36;56.14;100576.66;10385085;28;20053;-76
2021/10/14 15:17:39;;;;;;;6.70;2.22;;;;;;;14.34;56.25;100572.44;10382761;28;20051;-66
2021/10/14 15:22:42;;;;;;;6.00;2.40;;;;;;;14.35;56.26;100564.44;10385077;28;20048;-66
2021/10/14 15:27:43;;;;;;;6.28;2.28;;;;;;;14.32;56.36;100558.53;10382158;28;20646;-68
2021/10/14 15:32:47;;;;;;;6.05;2.20;;;;;;;14.30;56.72;100552.53;10383552;28;20432;-69
2021/10/14 15:37:52;;;;;;;5.45;2.33;;;;;;;14.23;56.37;100554.72;10386728;28;20476;-68
2021/10/14 15:42:53;;;;;;;8.10;2.63;;;;;;;14.11;56.84;100552.88;10390932;28;20045;-68
2021/10/14 15:47:55;;;;;;;7.20;2.47;;;;;;;14.05;56.97;100549.78;10380787;28;20458;-68
2021/10/14 15:52:57;;;;;;;5.25;2.25;;;;;;;14.01;57.16;100541.25;10390943;28;20041;-69
2021/10/14 15:57:58;;;;;;;6.00;2.30;;;;;;;13.99;57.44;100540.53;10383704;28;20041;-69
2021/10/14 16:03:00;;;;;;;7.28;2.22;;;;;;;13.93;57.64;100538.28;10388436;28;20053;-68
2021/10/14 16:08:02;;;;;;;6.38;2.40;;;;;;;13.87;57.71;100535.19;10389326;28;20282;-68
2021/10/14 16:13:08;;;;;;;7.68;2.35;;;;;;;13.89;57.69;100533.31;10387850;28;20580;-68
2021/10/14 16:18:09;;;;;;;6.78;2.50;;;;;;;13.87;58.06;100533.41;10387581;28;20053;-68
2021/10/14 16:23:12;;;;;;;4.05;2.05;;;;;;;13.87;57.75;100538.69;10389961;28;20136;-68
2021/10/14 16:28:16;;;;;;;4.72;2.30;;;;;;;13.85;57.81;100532.66;10390451;28;20085;-68
2021/10/14 16:38:25;;;;;;;5.50;2.22;;;;;;;13.79;58.30;100519.91;10382612;28;20376;-68
2021/10/14 16:43:28;;;;;;;8.38;2.78;;;;;;;13.76;58.50;100512.22;10389602;28;20053;-69
2021/10/14 16:48:29;;;;;;;5.80;2.50;;;;;;;13.71;58.49;100517.78;10384814;28;20057;-67
2021/10/14 16:53:31;;;;;;;6.55;2.38;;;;;;;13.65;58.69;100514.69;10390253;28;20052;-68
2021/10/14 16:58:33;;;;;;;4.03;2.10;;;;;;;13.59;59.04;100517.72;10390482;28;20056;-67
2021/10/14 17:03:35;;;;;;;5.68;2.65;;;;;;;13.53;59.18;100518.09;10389723;28;20059;-67
2021/10/14 17:08:37;;;;;;;8.75;2.95;;;;;;;13.58;59.11;100519.47;10387095;28;20950;-62
2021/10/14 17:13:39;;;;;;;10.40;2.85;;;;;;;13.58;59.45;100521.25;10388280;28;20367;-63
2021/10/14 17:18:41;;;;;;;6.45;2.50;;;;;;;13.53;59.52;100524.19;10388577;28;20053;-63
2021/10/14 17:39:44;;;;;;;6.03;2.40;;;;;;;13.27;60.33;100519.66;10389006;28;20049;-63
2021/10/14 17:44:58;;;;;;;4.47;2.28;;;;;;;13.26;60.36;100519.75;10388902;28;20050;-63
2021/10/14 17:50:00;;;;;;;5.30;2.60;;;;;;;13.26;60.53;100515.34;10388908;28;20132;-63
2021/10/14 17:55:02;;;;;;;5.88;2.50;;;;;;;13.26;60.53;100510.09;10385909;28;20072;-63
2021/10/14 18:00:06;;;;;;;5.30;2.70;;;;;;;13.26;60.81;100490.88;10383556;28;20053;-63
2021/10/14 18:42:10;;;;;;;5.80;2.63;;;;;;;13.05;61.10;100485.16;10378590;28;20495;-63
2021/10/14 18:47:13;;;;;;;5.22;2.47;;;;;;;13.05;61.24;100476.44;10381808;28;20428;-63
2021/10/14 18:52:24;;;;;;;11.60;4.50;;;;;;;13.03;61.56;100473.88;10382715;28;20055;-63
2021/10/14 18:57:25;;;;;;;7.68;2.97;;;;;;;13.00;61.46;100468.00;10382021;28;20041;-63
2021/10/14 19:02:28;;;;;;;7.03;2.75;;;;;;;13.04;61.33;100469.50;10384047;28;20135;-63
2021/10/14 19:07:49;;;;;;;7.72;3.20;;;;;;;13.03;61.64;100457.31;10385639;28;20099;-63
2021/10/14 20:22:32;;;;;;;7.72;2.60;;;;;;;12.67;62.78;100434.13;10384471;28;20045;-64
2021/10/14 20:27:34;;;;;;;6.43;2.70;;;;;;;12.68;62.49;100427.97;10390505;28;20037;-64
2021/10/14 20:32:36;;;;;;;5.68;2.67;;;;;;;12.66;62.41;100430.66;10390690;28;20053;-64
2021/10/14 20:37:38;;;;;;;6.10;2.92;;;;;;;12.61;62.71;100427.47;10389050;28;20055;-64
2021/10/14 20:42:40;;;;;;;6.20;2.90;;;;;;;12.52;62.69;100419.31;10389515;28;20072;-63
2021/10/14 20:47:42;;;;;;;7.55;2.97;;;;;;;12.41;62.55;100416.50;10390584;28;20049;-63
2021/10/14 21:03:12;;;;;;;5.78;2.80;;;;;;;11.95;62.68;100405.19;10388492;28;20111;-63
2021/10/14 21:08:14;;;;;;;10.90;3.83;;;;;;;11.71;63.42;100401.34;10389291;28;20045;-63
2021/10/14 21:13:16;;;;;;;5.97;3.60;;;;;;;11.46;63.94;100398.44;10387451;28;20060;-63
2021/10/14 21:18:18;;;;;;;7.03;3.35;;;;;;;11.25;64.15;100393.44;10389148;28;20056;-63
2021/10/14 21:23:21;;;;;;;6.93;3.00;;;;;;;11.12;64.33;100392.44;10387669;28;20124;-63
2021/10/14 21:28:29;;;;;;;7.93;3.17;;;;;;;11.00;64.59;100382.63;10387747;28;20413;-63
2021/10/14 21:38:52;;;;;;;7.47;3.30;;;;;;;10.77;65.11;100376.91;10384395;28;20579;-63
2021/10/14 21:43:54;;;;;;;7.32;3.15;;;;;;;10.69;65.28;100377.31;10385669;28;20421;-63
2021/10/14 21:48:55;;;;;;;6.80;2.80;;;;;;;10.61;65.53;100376.88;10386022;28;20232;-63
2021/10/14 21:54:02;;;;;;;6.65;2.88;;;;;;;10.54;65.48;100374.69;10386502;28;20056;-64
2021/10/14 21:59:04;;;;;;;6.70;3.10;;;;;;;10.42;65.64;100370.91;10383215;28;20449;-63
2021/10/14 22:04:06;;;;;;;8.07;3.17;;;;;;;10.32;65.82;100370.56;10385611;28;20067;-63
2021/10/14 22:09:08;;;;;;;6.68;3.10;;;;;;;10.32;65.81;100364.47;10385681;28;20053;-63
2021/10/14 22:14:10;;;;;;;8.80;3.20;;;;;;;10.29;65.50;100362.03;10384315;28;20531;-63
2021/10/14 22:19:11;;;;;;;6.25;2.60;;;;;;;10.23;65.75;100360.59;10385971;28;20053;-63
2021/10/14 22:24:13;;;;;;;9.50;3.33;;;;;;;10.26;65.49;100349.97;10384820;28;20051;-63
2021/10/14 22:29:15;;;;;;;8.63;3.22;;;;;;;10.23;65.45;100341.44;10386270;28;20057;-63
2021/10/14 22:34:17;;;;;;;7.05;3.08;;;;;;;10.12;65.39;100333.31;10384873;28;20065;-63
2021/10/14 22:39:19;;;;;;;7.32;2.88;;;;;;;10.01;65.25;100330.41;10385248;28;20083;-63
2021/10/14 22:44:21;;;;;;;6.25;3.03;;;;;;;9.94;65.21;100329.03;10385219;28;20088;-63
2021/10/14 22:49:22;;;;;;;6.78;3.22;;;;;;;9.88;65.23;100318.88;10384610;28;20063;-63
2021/10/14 22:54:24;;;;;;;8.27;3.20;;;;;;;9.79;65.18;100317.56;10385068;28;20301;-64
2021/10/14 22:59:26;;;;;;;6.05;2.70;;;;;;;9.69;65.63;100313.72;10384589;28;20409;-62
2021/10/14 23:04:27;;;;;;;7.47;3.28;;;;;;;9.64;65.43;100307.88;10384568;28;20054;-64
2021/10/14 23:09:30;;;;;;;4.85;2.95;;;;;;;9.60;65.47;100301.13;10383786;28;20075;-62
2021/10/14 23:14:32;;;;;;;7.45;2.92;;;;;;;9.56;65.39;100292.56;10384080;28;20619;-63
2021/10/14 23:19:34;;;;;;;6.07;3.13;;;;;;;9.48;65.51;100286.88;10384255;28;20056;-63
2021/10/14 23:24:36;;;;;;;8.20;3.25;;;;;;;9.44;65.46;100282.72;10383186;28;20049;-63
2021/10/14 23:29:39;;;;;;;8.98;3.30;;;;;;;9.40;65.61;100277.78;10384357;28;20057;-63
2021/10/14 23:34:41;;;;;;;6.30;3.35;;;;;;;9.34;65.52;100267.63;10382960;28;20044;-63
2021/10/14 23:39:42;;;;;;;7.40;3.60;;;;;;;9.22;65.83;100261.22;10384478;28;20530;-63
2021/10/14 23:44:44;;;;;;;6.38;3.20;;;;;;;9.25;65.66;100258.47;10384040;28;20065;-63
2021/10/14 23:49:46;;;;;;;8.95;3.17;;;;;;;9.21;65.78;100261.31;10383259;28;20465;-63
2021/10/14 23:54:47;;;;;;;9.80;3.53;;;;;;;9.19;65.92;100250.97;10383683;28;20455;-63
2021/10/14 23:59:49;;;;;;;8.85;3.60;;;;;;;9.17;65.88;100251.94;10386138;28;20490;-63
